createdAt,value
2023-04-15T00:00:18.540Z,6.30
2023-04-15T00:01:18.488Z,7.10
2023-04-15T00:02:18.717Z,7.00
2023-04-15T00:03:18.666Z,6.40
2023-04-15T00:04:18.509Z,6.80
2023-04-15T00:05:18.410Z,6.30
2023-04-15T00:06:18.420Z,6.50
2023-04-15T00:07:18.356Z,6.40
2023-04-15T00:08:18.377Z,6.20
2023-04-15T00:09:18.420Z,6.70
2023-04-15T00:10:18.434Z,6.70
2023-04-15T00:11:18.307Z,6.70
2023-04-15T00:12:18.315Z,6.70
2023-04-15T00:13:18.346Z,6.60
2023-04-15T00:14:18.314Z,6.70
2023-04-15T00:15:18.280Z,6.60
2023-04-15T00:16:18.355Z,6.90
2023-04-15T00:17:18.459Z,6.40
2023-04-15T00:18:18.274Z,6.20
2023-04-15T00:19:18.315Z,6.60
2023-04-15T00:20:18.435Z,6.90
2023-04-15T00:21:18.315Z,6.20
2023-04-15T00:22:18.191Z,6.80
2023-04-15T00:23:18.243Z,6.90
2023-04-15T00:24:18.265Z,6.50
2023-04-15T00:25:18.223Z,7.20
2023-04-15T00:26:18.170Z,7.30
2023-04-15T00:27:18.342Z,7.00
2023-04-15T00:28:18.107Z,6.80
2023-04-15T00:29:18.174Z,7.10
2023-04-15T00:30:18.094Z,6.40
2023-04-15T00:31:18.293Z,6.80
2023-04-15T00:32:18.196Z,6.60
2023-04-15T00:33:18.226Z,6.50
2023-04-15T00:34:18.213Z,6.50
2023-04-15T00:35:18.096Z,6.10
2023-04-15T00:36:18.169Z,6.40
2023-04-15T00:37:18.024Z,6.40
2023-04-15T00:38:18.209Z,6.70
2023-04-15T00:39:18.055Z,6.80
2023-04-15T00:40:18.138Z,6.60
2023-04-15T00:41:18.038Z,7.50
2023-04-15T00:42:17.990Z,6.70
2023-04-15T00:43:18.085Z,6.10
2023-04-15T00:44:20.325Z,6.50
2023-04-15T00:45:17.988Z,6.10
2023-04-15T00:46:18.032Z,6.40
2023-04-15T00:47:18.134Z,7.40
2023-04-15T00:48:17.942Z,7.00
2023-04-15T00:49:18.194Z,7.00
2023-04-15T00:50:17.983Z,6.50
2023-04-15T00:51:17.934Z,6.50
2023-04-15T00:52:18.025Z,6.40
2023-04-15T00:53:17.919Z,6.60
2023-04-15T00:54:17.944Z,6.30
2023-04-15T00:55:17.856Z,6.40
2023-04-15T00:56:17.995Z,6.60
2023-04-15T00:57:17.806Z,6.90
2023-04-15T00:58:18.134Z,6.40
2023-04-15T00:59:17.809Z,6.30
2023-04-15T01:00:17.884Z,6.40
2023-04-15T01:01:17.945Z,6.80
2023-04-15T01:02:17.874Z,6.60
2023-04-15T01:03:17.856Z,6.70
2023-04-15T01:04:17.856Z,6.80
2023-04-15T01:05:17.811Z,7.20
2023-04-15T01:06:17.712Z,7.30
2023-04-15T01:07:17.855Z,7.10
2023-04-15T01:08:17.674Z,6.80
2023-04-15T01:09:17.698Z,7.10
2023-04-15T01:10:17.897Z,7.00
2023-04-15T01:11:17.688Z,7.40
2023-04-15T01:12:17.668Z,7.20
2023-04-15T01:13:17.687Z,6.80
2023-04-15T01:14:17.644Z,7.00
2023-04-15T01:15:17.654Z,7.40
2023-04-15T01:16:17.616Z,7.30
2023-04-15T01:17:17.597Z,7.10
2023-04-15T01:18:17.592Z,7.40
2023-04-15T01:19:17.636Z,7.60
2023-04-15T01:20:17.583Z,6.70
2023-04-15T01:21:17.696Z,7.40
2023-04-15T01:22:17.725Z,7.20
2023-04-15T01:23:17.618Z,7.50
2023-04-15T01:24:17.576Z,6.80
2023-04-15T01:25:17.551Z,6.70
2023-04-15T01:26:17.867Z,6.70
2023-04-15T01:27:17.558Z,6.80
2023-04-15T01:28:17.497Z,7.20
2023-04-15T01:29:17.528Z,7.30
2023-04-15T01:30:17.630Z,6.80
2023-04-15T01:31:17.688Z,7.40
2023-04-15T01:32:17.513Z,6.90
2023-04-15T01:33:17.539Z,7.70
2023-04-15T01:34:17.422Z,7.50
2023-04-15T01:35:17.567Z,6.80
2023-04-15T01:36:17.487Z,6.80
2023-04-15T01:37:39.648Z,7.30
2023-04-15T01:38:19.722Z,7.70
2023-04-15T01:39:17.407Z,7.40
2023-04-15T01:40:17.333Z,7.50
2023-04-15T01:41:17.675Z,7.40
2023-04-15T01:42:18.123Z,7.90
2023-04-15T01:43:38.572Z,7.30
2023-04-15T01:44:17.339Z,7.60
2023-04-15T01:45:17.370Z,7.90
2023-04-15T01:46:17.296Z,7.50
2023-04-15T01:47:17.289Z,7.70
2023-04-15T01:48:17.354Z,7.10
2023-04-15T01:49:17.331Z,7.70
2023-04-15T01:50:17.406Z,7.30
2023-04-15T01:51:17.563Z,7.20
2023-04-15T01:52:17.238Z,7.50
2023-04-15T01:53:17.312Z,7.40
2023-04-15T01:54:17.250Z,7.40
2023-04-15T01:55:17.273Z,7.40
2023-04-15T01:56:17.183Z,7.20
2023-04-15T01:57:17.177Z,7.60
2023-04-15T01:58:17.167Z,7.60
2023-04-15T01:59:17.151Z,7.80
2023-04-15T02:00:17.153Z,8.20
2023-04-15T02:01:17.241Z,7.60
2023-04-15T02:02:17.148Z,8.40
2023-04-15T02:03:17.276Z,8.00
2023-04-15T02:04:17.353Z,8.50
2023-04-15T02:05:22.638Z,7.60
2023-04-15T02:07:29.638Z,9.30
2023-04-15T02:08:29.641Z,9.20
2023-04-15T02:09:29.742Z,8.90
2023-04-15T02:10:29.590Z,8.80
2023-04-15T02:11:29.575Z,8.20
2023-04-15T02:12:29.732Z,9.00
2023-04-15T04:26:56.132Z,17.10
2023-04-15T04:27:56.052Z,17.20
2023-04-15T04:28:56.098Z,15.60
2023-04-15T04:29:56.026Z,16.10
2023-04-15T04:30:56.020Z,15.90
2023-04-15T04:31:56.066Z,15.90
2023-04-15T04:32:56.054Z,16.00
2023-04-15T04:33:55.959Z,15.70
2023-04-15T04:34:55.982Z,16.20
2023-04-15T04:35:55.954Z,16.10
2023-04-15T04:36:55.968Z,16.90
2023-04-15T04:37:56.042Z,16.10
2023-04-15T04:38:55.905Z,16.30
2023-04-15T04:39:55.964Z,16.10
2023-04-15T04:40:56.961Z,15.50
2023-04-15T04:41:55.886Z,15.60
2023-04-15T04:42:55.882Z,15.80
2023-04-15T04:43:55.926Z,15.80
2023-04-15T04:44:55.893Z,16.00
2023-04-15T04:45:55.935Z,15.50
2023-04-15T04:46:55.915Z,16.00
2023-04-15T04:47:55.847Z,15.20
2023-04-15T04:48:55.784Z,15.50
2023-04-15T04:49:55.831Z,15.70
2023-04-15T04:50:55.835Z,15.20
2023-04-15T04:51:55.940Z,16.10
2023-04-15T04:52:56.823Z,15.40
2023-04-15T04:53:55.800Z,14.70
2023-04-15T04:54:55.734Z,15.80
2023-04-15T04:55:56.476Z,16.30
2023-04-15T04:56:55.705Z,15.20
2023-04-15T04:57:56.705Z,14.80
2023-04-15T04:58:55.767Z,14.70
2023-04-15T04:59:55.702Z,15.00
2023-04-15T05:00:55.706Z,15.60
2023-04-15T05:01:55.840Z,15.30
2023-04-15T05:02:55.818Z,15.00
2023-04-15T05:03:55.725Z,15.20
2023-04-15T05:04:55.656Z,15.70
2023-04-15T05:05:55.696Z,14.50
2023-04-15T05:06:55.619Z,14.90
2023-04-15T05:07:55.705Z,14.60
2023-04-15T05:08:55.789Z,14.50
2023-04-15T05:09:55.898Z,14.40
2023-04-15T05:10:56.552Z,15.10
2023-04-15T05:11:56.241Z,15.00
2023-04-15T05:12:57.093Z,14.90
2023-04-15T05:13:55.636Z,14.70
2023-04-15T05:14:55.648Z,14.60
2023-04-15T05:15:55.595Z,14.60
2023-04-15T08:53:33.403Z,8.40
2023-04-15T08:54:10.404Z,7.90
2023-04-15T08:55:12.255Z,9.00
2023-04-15T08:56:10.272Z,8.70
2023-04-15T08:57:10.202Z,9.50
2023-04-15T08:58:10.141Z,8.70
2023-04-15T08:59:10.124Z,8.70
2023-04-15T09:00:10.126Z,9.50
2023-04-15T09:01:10.122Z,8.90
2023-04-15T09:02:10.127Z,8.80
2023-04-15T09:03:10.129Z,8.70
2023-04-15T09:04:31.065Z,8.80
2023-04-15T09:05:10.160Z,8.70
2023-04-15T09:06:10.344Z,8.70
2023-04-15T09:07:32.293Z,8.80
2023-04-15T09:08:10.041Z,7.70
2023-04-15T09:09:10.073Z,9.10
2023-04-15T09:10:10.026Z,7.50
2023-04-15T09:11:10.009Z,7.90
2023-04-15T09:12:10.045Z,8.20
2023-04-15T09:13:09.988Z,8.80
2023-04-15T09:14:10.054Z,8.40
2023-04-15T09:15:12.236Z,8.60
2023-04-15T09:16:12.257Z,8.50
2023-04-15T09:17:09.975Z,8.50
2023-04-15T09:18:09.927Z,9.20
2023-04-15T09:19:09.976Z,8.30
2023-04-15T09:20:09.905Z,7.50
2023-04-15T09:21:09.881Z,7.60
2023-04-15T09:22:09.892Z,7.80
2023-04-15T09:23:09.980Z,7.80
2023-04-15T09:24:09.874Z,8.00
2023-04-15T09:25:09.884Z,8.20
2023-04-15T09:26:09.859Z,7.30
2023-04-15T09:27:09.818Z,7.70
2023-04-15T09:28:09.799Z,7.00
2023-04-15T09:29:09.817Z,7.10
2023-04-15T09:30:09.960Z,7.00
2023-04-15T09:31:09.789Z,7.10
2023-04-15T09:32:09.756Z,7.20
2023-04-15T09:33:09.783Z,7.50
2023-04-15T09:34:09.727Z,7.40
2023-04-15T09:35:09.804Z,7.20
2023-04-15T09:36:09.721Z,6.80
2023-04-15T09:37:09.990Z,7.50
2023-04-15T09:38:09.862Z,6.50
2023-04-15T09:39:09.678Z,7.60
2023-04-15T09:40:09.706Z,6.80
2023-04-15T09:41:09.652Z,6.80
2023-04-15T09:42:09.664Z,6.30
2023-04-15T09:43:09.700Z,6.60
2023-04-15T09:44:09.660Z,7.20
2023-04-15T09:45:09.637Z,6.80
2023-04-15T09:46:09.757Z,6.20
2023-04-15T09:47:09.592Z,5.90
2023-04-15T09:48:09.646Z,6.40
2023-04-15T09:49:09.605Z,6.30
2023-04-15T09:50:09.619Z,7.30
2023-04-15T09:51:09.554Z,6.70
2023-04-15T09:52:09.535Z,6.70
2023-04-15T09:53:09.543Z,6.70
2023-04-15T09:54:09.517Z,6.90
2023-04-15T09:55:09.526Z,6.90
2023-04-15T09:56:09.491Z,6.60
2023-04-15T09:57:09.526Z,6.50
2023-04-15T09:58:09.505Z,6.10
2023-04-15T09:59:09.496Z,5.90
2023-04-15T10:00:09.528Z,6.10
2023-04-15T10:01:09.572Z,5.80
2023-04-15T10:02:09.678Z,6.40
2023-04-15T10:03:09.550Z,6.30
2023-04-15T10:04:09.504Z,5.70
2023-04-15T10:05:31.380Z,5.80
2023-04-15T10:06:09.475Z,6.40
2023-04-15T10:07:30.468Z,6.30
2023-04-15T10:08:09.408Z,6.60
2023-04-15T10:09:10.388Z,6.30
2023-04-15T10:10:11.418Z,6.00
2023-04-15T10:11:09.568Z,5.80
2023-04-15T10:12:09.352Z,5.70
2023-04-15T10:13:09.537Z,6.40
2023-04-15T10:14:10.356Z,5.60
2023-04-15T10:15:18.189Z,6.30
2023-04-15T10:16:09.394Z,6.00
2023-04-15T11:28:16.097Z,5.10
2023-04-15T11:29:15.943Z,5.20
2023-04-15T11:30:15.933Z,5.70
2023-04-15T11:31:17.114Z,5.70
2023-04-15T11:32:16.044Z,5.10
2023-04-15T11:33:15.830Z,5.40
2023-04-15T11:34:15.810Z,4.60
2023-04-15T11:35:15.830Z,5.20
2023-04-15T11:36:15.844Z,5.00
2023-04-15T11:37:15.960Z,5.20
2023-04-15T11:38:37.032Z,5.40
2023-04-15T11:39:15.872Z,5.20
2023-04-15T11:40:17.040Z,5.00
2023-04-15T11:41:15.782Z,5.10
2023-04-15T11:42:15.825Z,4.70
2023-04-15T11:43:15.752Z,4.90
2023-04-15T11:44:44.740Z,5.00
2023-04-15T11:45:18.048Z,5.20
2023-04-15T11:46:15.762Z,4.20
2023-04-15T11:47:38.964Z,4.30
2023-04-15T11:48:15.786Z,4.60
2023-04-15T11:49:15.685Z,4.50
2023-04-15T11:50:15.797Z,4.80
2023-04-15T11:54:37.034Z,4.50
2023-04-15T11:55:34.835Z,4.60
2023-04-15T11:56:34.784Z,4.50
2023-04-15T11:57:57.146Z,4.90
2023-04-15T11:58:34.863Z,5.30
2023-04-15T11:59:44.455Z,4.90
2023-04-15T12:00:51.090Z,5.00
2023-04-15T12:04:55.745Z,5.30
2023-04-15T12:05:34.911Z,5.30
2023-04-15T12:21:45.328Z,5.10
2023-04-15T12:22:45.340Z,5.30
2023-04-15T12:23:45.311Z,4.50
2023-04-15T12:24:45.542Z,4.30
2023-04-15T12:25:45.309Z,4.10
2023-04-15T12:39:54.852Z,3.90
2023-04-15T12:40:14.671Z,3.70
2023-04-15T12:41:14.653Z,3.70
2023-04-15T12:42:14.629Z,3.90
2023-04-15T12:43:14.643Z,4.10
2023-04-15T12:44:14.588Z,3.90
2023-04-15T12:45:14.644Z,3.50
2023-04-15T12:46:14.626Z,3.70
2023-04-15T12:47:14.605Z,3.80
2023-04-15T12:48:14.643Z,3.90
2023-04-15T12:49:14.596Z,3.60
2023-04-15T12:50:14.593Z,3.90
2023-04-15T12:51:14.543Z,3.90
2023-04-15T12:52:14.520Z,3.60
2023-04-15T12:53:14.595Z,3.50
2023-04-15T12:54:14.526Z,3.60
2023-04-15T12:55:35.504Z,3.80
2023-04-15T12:56:15.674Z,3.90
2023-04-15T12:57:14.547Z,4.00
2023-04-15T13:07:21.295Z,3.30
2023-04-15T13:08:21.266Z,3.50
2023-04-15T13:09:42.258Z,3.80
2023-04-15T13:10:47.502Z,3.70
2023-04-15T13:11:22.799Z,3.80
2023-04-15T13:12:22.181Z,3.50
2023-04-15T13:13:21.344Z,3.50
2023-04-15T13:14:21.100Z,3.10
2023-04-15T13:15:21.108Z,3.30
2023-04-15T13:16:21.091Z,2.90
2023-04-15T13:17:21.087Z,3.70
2023-04-15T13:18:21.071Z,3.80
2023-04-15T13:19:21.085Z,5.00
2023-04-15T13:20:21.076Z,3.30
2023-04-15T13:21:21.037Z,3.50
2023-04-15T13:22:21.017Z,3.70
2023-04-15T13:23:21.077Z,3.80
2023-04-15T13:24:22.143Z,3.00
2023-04-15T13:25:21.035Z,3.00
2023-04-15T13:26:20.994Z,2.90
2023-04-15T13:27:21.062Z,3.10
2023-04-15T13:28:22.186Z,2.70
2023-04-15T13:29:25.098Z,2.80
2023-04-15T13:30:21.019Z,3.00
2023-04-15T13:31:42.247Z,3.30
2023-04-15T13:32:21.045Z,3.70
2023-04-15T13:33:20.966Z,3.80
2023-04-15T13:34:21.024Z,3.70
2023-04-15T13:35:21.018Z,3.80
2023-04-15T13:36:20.966Z,3.60
2023-04-15T13:37:20.922Z,3.50
2023-04-15T13:38:20.981Z,3.40
2023-04-15T13:39:20.976Z,3.70
2023-04-15T13:40:20.938Z,3.30
2023-04-15T13:41:20.821Z,3.40
2023-04-15T13:42:20.894Z,3.50
2023-04-15T13:43:20.935Z,3.30
2023-04-15T13:44:22.226Z,3.60
2023-04-15T13:45:20.860Z,3.60
2023-04-15T13:46:20.888Z,3.60
2023-04-15T13:47:20.761Z,3.20
2023-04-15T13:48:20.804Z,3.20
2023-04-15T13:49:20.816Z,3.40
2023-04-15T13:50:20.856Z,3.10
2023-04-15T13:51:20.801Z,3.30
2023-04-15T13:52:20.763Z,4.30
2023-04-15T13:53:20.740Z,5.50
2023-04-15T13:54:21.734Z,4.30
2023-04-15T13:55:23.009Z,3.40
2023-04-15T13:56:20.798Z,3.60
2023-04-15T13:57:20.673Z,3.50
2023-04-15T13:58:20.702Z,3.60
2023-04-15T13:59:20.682Z,3.50
2023-04-15T14:00:20.672Z,2.80
2023-04-15T14:01:20.670Z,3.20
2023-04-15T14:02:20.760Z,3.60
2023-04-15T14:03:20.709Z,3.20
2023-04-15T14:04:20.839Z,2.90
2023-04-15T14:05:20.548Z,3.20
2023-04-15T14:06:20.786Z,3.20
2023-04-15T14:07:20.625Z,3.00
2023-04-15T14:08:20.590Z,3.30
2023-04-15T14:09:20.672Z,3.30
2023-04-15T14:10:20.571Z,2.90
2023-04-15T14:11:20.505Z,2.90
2023-04-15T14:12:20.596Z,4.30
2023-04-15T14:13:20.492Z,4.00
2023-04-15T14:14:20.578Z,3.40
2023-04-15T14:15:21.942Z,3.10
2023-04-15T14:16:20.502Z,3.10
2023-04-15T14:17:22.715Z,3.60
2023-04-15T14:23:22.334Z,3.30
2023-04-15T14:24:19.635Z,3.20
2023-04-15T14:25:26.937Z,3.20
2023-04-15T14:26:20.624Z,2.80
2023-04-15T14:27:19.695Z,2.80
2023-04-15T14:28:19.629Z,3.00
2023-04-15T14:29:19.619Z,3.50
2023-04-15T14:30:19.503Z,3.20
2023-04-15T14:31:19.836Z,2.90
2023-04-15T14:32:19.561Z,3.00
2023-04-15T14:33:19.573Z,3.10
2023-04-15T14:34:19.578Z,3.00
2023-04-15T14:35:19.544Z,2.90
2023-04-15T14:36:19.621Z,3.00
2023-04-15T14:37:19.452Z,3.00
2023-04-15T14:38:19.538Z,3.50
2023-04-15T14:39:19.427Z,3.60
2023-04-15T14:40:19.687Z,2.90
2023-04-15T14:41:19.444Z,3.40
2023-04-15T14:42:19.489Z,3.20
2023-04-15T14:43:19.424Z,3.40
2023-04-15T14:44:19.450Z,3.60
2023-04-15T14:45:19.404Z,3.40
2023-04-15T14:46:19.515Z,3.50
2023-04-15T14:47:19.487Z,3.80
2023-04-15T14:48:19.368Z,3.70
2023-04-15T14:49:19.411Z,3.70
2023-04-15T14:50:19.345Z,3.40
2023-04-15T14:51:19.429Z,3.70
2023-04-15T14:52:19.381Z,4.20
2023-04-15T14:53:19.369Z,3.90
2023-04-15T14:54:21.161Z,4.10
2023-04-15T14:55:19.315Z,3.70
2023-04-15T14:56:19.351Z,4.20
2023-04-15T14:57:19.311Z,4.10
2023-04-15T14:58:19.284Z,4.30
2023-04-15T14:59:19.274Z,3.60
2023-04-15T15:00:19.284Z,4.10
2023-04-15T15:01:19.376Z,4.80
2023-04-15T15:02:37.438Z,4.70
2023-04-15T15:03:20.282Z,4.90
2023-04-15T15:04:20.775Z,4.70
2023-04-15T15:05:19.366Z,4.40
2023-04-15T15:06:19.240Z,4.40
2023-04-15T15:07:19.215Z,4.50
2023-04-15T15:08:19.135Z,4.50
2023-04-15T15:09:19.156Z,4.50
2023-04-15T15:10:46.549Z,4.20
2023-04-15T15:11:20.186Z,4.20
2023-04-15T15:12:19.074Z,4.90
2023-04-15T15:13:19.176Z,5.10
2023-04-15T15:14:19.137Z,4.60
2023-04-15T15:15:28.575Z,4.40
2023-04-15T15:16:20.234Z,4.50
2023-04-15T15:17:19.035Z,4.30
2023-04-15T15:18:19.394Z,4.50
2023-04-15T15:19:19.033Z,4.20
2023-04-15T15:20:19.048Z,4.20
2023-04-15T15:21:19.049Z,3.80
2023-04-15T15:22:21.189Z,3.70
2023-04-15T15:23:19.056Z,4.10
2023-04-15T15:24:19.044Z,4.30
2023-04-15T15:25:19.009Z,4.30
2023-04-15T15:26:19.022Z,4.30
2023-04-15T15:27:18.996Z,5.10
2023-04-15T15:28:19.044Z,4.80
2023-04-15T15:29:19.017Z,5.20
2023-04-15T15:30:18.944Z,4.40
2023-04-15T15:31:19.039Z,5.00
2023-04-15T15:32:18.941Z,4.80
2023-04-15T15:33:18.920Z,5.20
2023-04-15T15:34:18.974Z,5.00
2023-04-15T15:35:18.951Z,5.10
2023-04-15T15:36:19.061Z,5.50
2023-04-15T15:37:18.958Z,5.40
2023-04-15T15:38:18.862Z,5.80
2023-04-15T15:39:18.869Z,5.70
2023-04-15T15:40:18.838Z,5.60
2023-04-15T15:41:18.801Z,6.10
2023-04-15T15:42:18.831Z,7.10
2023-04-15T15:43:18.830Z,6.70
2023-04-15T15:44:18.820Z,6.90
2023-04-15T15:45:18.982Z,6.00
2023-04-15T15:46:18.794Z,5.80
2023-04-15T15:47:18.835Z,6.10
2023-04-15T15:48:19.419Z,6.80
2023-04-15T15:49:18.758Z,6.30
2023-04-15T15:50:18.753Z,6.30
2023-04-15T15:51:18.766Z,7.40
2023-04-15T15:52:18.681Z,5.50
2023-04-15T15:53:18.672Z,5.10
2023-04-15T15:54:18.658Z,5.70
2023-04-15T15:55:18.676Z,4.70
2023-04-15T15:56:18.700Z,5.10
2023-04-15T15:57:18.715Z,4.70
2023-04-15T15:58:18.700Z,5.20
2023-04-15T15:59:18.660Z,4.70
2023-04-15T16:00:18.713Z,4.40
2023-04-15T16:01:18.750Z,5.00
2023-04-15T16:02:18.648Z,4.60
2023-04-15T16:03:18.742Z,4.20
2023-04-15T16:04:18.787Z,5.10
2023-04-15T16:05:18.703Z,4.80
2023-04-15T16:06:18.612Z,4.90
2023-04-15T16:07:18.584Z,4.30
2023-04-15T16:08:18.540Z,5.00
2023-04-15T16:09:18.555Z,5.10
2023-04-15T16:10:18.521Z,4.90
2023-04-15T16:11:18.772Z,4.10
2023-04-15T16:12:18.696Z,4.30
2023-04-15T16:13:18.489Z,4.40
2023-04-15T16:14:18.482Z,4.90
2023-04-15T16:15:18.490Z,4.00
2023-04-15T16:16:18.550Z,4.10
2023-04-15T16:17:18.516Z,4.60
2023-04-15T16:18:18.429Z,4.90
2023-04-15T16:19:18.431Z,5.50
2023-04-15T16:20:18.527Z,5.30
2023-04-15T16:21:18.408Z,4.20
2023-04-15T16:22:18.372Z,5.50
2023-04-15T16:23:18.429Z,4.70
2023-04-15T16:24:18.386Z,4.20
2023-04-15T16:25:18.366Z,4.40
2023-04-15T16:26:18.404Z,5.70
2023-04-15T16:27:18.366Z,4.90
2023-04-15T16:28:26.277Z,3.90
2023-04-15T16:29:19.322Z,4.20
2023-04-15T16:30:18.635Z,4.90
2023-04-15T16:31:18.353Z,4.40
2023-04-15T16:32:18.380Z,4.80
2023-04-15T16:33:18.228Z,4.60
2023-04-15T16:34:18.211Z,4.40
2023-04-15T16:35:18.206Z,4.60
2023-04-15T16:36:18.266Z,4.90
2023-04-15T16:37:18.198Z,4.80
2023-04-15T16:38:18.206Z,4.90
2023-04-15T16:39:18.187Z,5.10
2023-04-15T16:40:18.149Z,4.50
2023-04-15T16:41:18.169Z,4.60
2023-04-15T16:42:18.081Z,5.30
2023-04-15T16:43:18.191Z,5.20
2023-04-15T16:44:18.138Z,5.70
2023-04-15T16:45:18.038Z,5.30
2023-04-15T16:46:18.096Z,5.80
2023-04-15T16:47:18.032Z,5.30
2023-04-15T16:48:18.007Z,5.80
2023-04-15T16:49:18.008Z,5.70
2023-04-15T16:50:17.983Z,6.30
2023-04-15T16:51:18.048Z,6.20
2023-04-15T16:52:18.029Z,6.10
2023-04-15T16:53:17.982Z,5.50
2023-04-15T16:54:17.944Z,5.90
2023-04-15T16:55:17.943Z,6.20
2023-04-15T16:56:17.978Z,6.40
2023-04-15T16:57:18.939Z,5.50
2023-04-15T16:58:17.979Z,5.60
2023-04-15T16:59:17.951Z,5.60
2023-04-15T17:00:17.907Z,6.00
2023-04-15T17:01:17.902Z,6.60
2023-04-15T17:02:18.034Z,6.00
2023-04-15T17:03:18.025Z,6.80
2023-04-15T17:04:18.020Z,6.50
2023-04-15T17:05:17.839Z,6.20
2023-04-15T17:06:17.816Z,6.60
2023-04-15T17:07:17.874Z,6.70
2023-04-15T17:08:17.878Z,7.10
2023-04-15T17:09:17.886Z,7.50
2023-04-15T17:10:19.272Z,7.00
2023-04-15T17:11:17.851Z,7.00
2023-04-15T17:12:17.814Z,7.40
2023-04-15T17:13:17.766Z,7.10
2023-04-15T17:14:17.757Z,7.50
2023-04-15T17:15:17.755Z,6.70
2023-04-15T17:16:17.806Z,6.10
2023-04-15T17:17:17.727Z,7.30
2023-04-15T17:18:17.780Z,7.60
2023-04-15T17:19:17.688Z,7.20
2023-04-15T17:20:17.745Z,7.50
2023-04-15T17:21:17.684Z,7.10
2023-04-15T17:22:17.690Z,6.50
2023-04-15T17:23:17.638Z,7.00
2023-04-15T17:24:17.631Z,7.70
2023-04-15T17:25:17.646Z,7.30
2023-04-15T17:26:17.651Z,6.50
2023-04-15T17:27:17.606Z,7.60
2023-04-15T17:28:17.668Z,7.80
2023-04-15T17:29:17.601Z,7.40
2023-04-15T17:30:17.620Z,7.60
2023-04-15T17:31:17.713Z,7.70
2023-04-15T17:32:17.624Z,7.40
2023-04-15T17:33:55.370Z,7.20
2023-04-15T17:34:18.739Z,7.10
2023-04-15T17:35:17.609Z,6.80
2023-04-15T17:36:17.580Z,7.90
2023-04-15T17:37:17.638Z,8.20
2023-04-15T17:38:17.618Z,8.30
2023-04-15T17:39:17.515Z,8.40
2023-04-15T17:40:17.538Z,7.50
2023-04-15T17:41:17.494Z,8.40
2023-04-15T17:42:17.556Z,9.60
2023-04-15T17:43:17.485Z,9.20
2023-04-15T17:44:17.501Z,9.20
2023-04-15T17:45:17.514Z,9.90
2023-04-15T17:46:17.476Z,9.10
2023-04-15T17:47:17.487Z,8.80
2023-04-15T17:48:17.443Z,8.60
2023-04-15T17:49:17.414Z,9.30
2023-04-15T17:50:17.444Z,8.10
2023-04-15T17:51:17.412Z,9.00
2023-04-15T17:52:17.516Z,9.20
2023-04-15T17:53:17.373Z,9.00
2023-04-15T17:54:17.369Z,8.40
2023-04-15T17:55:17.388Z,8.70
2023-04-15T17:56:17.360Z,8.30
2023-04-15T17:57:17.341Z,8.80
2023-04-15T17:58:17.346Z,9.10
2023-04-15T17:59:17.338Z,8.70
2023-04-15T18:00:17.392Z,9.60
2023-04-15T18:01:17.326Z,8.90
2023-04-15T18:02:17.382Z,9.20
2023-04-15T18:03:17.421Z,8.80
2023-04-15T18:04:17.357Z,9.50
2023-04-15T18:05:17.282Z,8.90
2023-04-15T18:06:17.246Z,9.10
2023-04-15T18:07:17.244Z,9.30
2023-04-15T18:08:17.149Z,9.00
2023-04-15T18:09:17.141Z,9.30
2023-04-15T18:10:17.127Z,9.70
2023-04-15T18:11:17.125Z,9.30
2023-04-15T18:12:17.136Z,9.40
2023-04-15T18:13:17.192Z,9.80
2023-04-15T18:14:30.570Z,10.30
2023-04-15T18:15:18.097Z,10.80
2023-04-15T18:16:17.120Z,9.70
2023-04-15T18:17:17.142Z,10.00
2023-04-15T18:18:17.034Z,9.90
2023-04-15T18:19:17.021Z,11.30
2023-04-15T18:20:17.106Z,9.80
2023-04-15T18:21:17.038Z,10.40
2023-04-15T18:22:17.042Z,10.60
2023-04-15T18:23:16.978Z,10.20
2023-04-15T18:24:16.970Z,9.70
2023-04-15T18:25:17.001Z,10.30
2023-04-15T18:26:16.986Z,10.40
2023-04-15T18:27:16.951Z,9.10
2023-04-15T18:28:16.947Z,10.10
2023-04-15T18:29:16.961Z,10.00
2023-04-15T18:30:16.960Z,9.50
2023-04-15T18:31:16.932Z,10.10
2023-04-15T18:32:16.967Z,10.70
2023-04-15T18:33:16.908Z,10.60
2023-04-15T18:34:16.889Z,10.30
2023-04-15T18:35:16.886Z,10.60
2023-04-15T18:36:16.858Z,11.00
2023-04-15T18:37:16.836Z,10.90
2023-04-15T18:38:16.855Z,11.40
2023-04-15T18:39:16.850Z,11.20
2023-04-15T18:40:16.820Z,11.20
2023-04-15T18:41:16.823Z,11.40
2023-04-15T18:42:16.810Z,12.10
2023-04-15T18:43:16.819Z,11.70
2023-04-15T18:44:16.792Z,11.10
2023-04-15T18:45:16.834Z,12.10
2023-04-15T18:46:16.811Z,11.60
2023-04-15T18:47:17.946Z,10.90
2023-04-15T19:24:06.611Z,13.00
2023-04-15T19:25:04.827Z,11.90
2023-04-15T19:26:05.863Z,12.80
2023-04-15T19:27:04.854Z,13.20
2023-04-15T19:28:04.795Z,13.30
2023-04-15T19:29:05.108Z,13.50
2023-04-15T19:30:04.778Z,14.00
2023-04-15T19:31:04.893Z,14.20
2023-04-15T19:32:04.809Z,13.70
2023-04-15T19:33:04.795Z,13.70
2023-04-15T20:01:25.350Z,15.70
2023-04-15T20:02:23.712Z,15.70
2023-04-15T20:03:23.565Z,14.70
2023-04-15T20:04:23.613Z,15.50
2023-04-15T20:05:23.455Z,15.60
2023-04-15T20:06:23.443Z,14.40
2023-04-15T20:07:23.490Z,15.20
2023-04-15T20:08:24.954Z,15.40
2023-04-15T20:09:23.427Z,14.90
2023-04-15T20:10:23.486Z,14.60
2023-04-15T20:11:23.403Z,15.30
2023-04-15T20:12:49.546Z,15.00
2023-04-15T20:13:24.457Z,15.30
2023-04-15T20:14:23.405Z,15.10
2023-04-15T20:15:23.404Z,15.90
2023-04-15T20:16:23.516Z,14.20
2023-04-15T20:17:23.429Z,15.20
2023-04-15T20:18:24.412Z,14.70
2023-04-15T20:19:23.328Z,13.80
2023-04-15T20:20:23.299Z,14.20
2023-04-15T20:21:23.344Z,15.30
2023-04-15T20:22:23.315Z,14.70
2023-04-15T20:23:23.267Z,14.80
2023-04-15T20:24:23.296Z,15.50
2023-04-15T20:25:23.297Z,16.30
2023-04-15T20:26:23.201Z,14.90
2023-04-15T20:27:23.262Z,14.70
2023-04-15T20:28:23.246Z,15.40
2023-04-15T20:29:23.189Z,15.80
2023-04-15T20:30:23.247Z,15.00
2023-04-15T20:31:23.301Z,14.50
2023-04-15T20:32:23.221Z,15.30
2023-04-15T20:33:24.626Z,15.30
2023-04-15T20:34:23.189Z,14.90
2023-04-15T20:35:23.157Z,16.40
2023-04-15T20:36:23.098Z,16.80
2023-04-15T20:37:23.119Z,15.20
2023-04-15T20:38:23.174Z,16.10
2023-04-15T20:39:23.081Z,15.70
2023-04-15T20:40:23.089Z,15.80
2023-04-15T20:41:23.109Z,16.30
2023-04-15T20:42:23.295Z,16.60
2023-04-15T20:43:23.128Z,15.70
2023-04-15T20:44:23.012Z,17.30
2023-04-15T20:45:23.081Z,17.00
2023-04-15T20:46:24.087Z,16.40
2023-04-15T20:47:23.079Z,16.20
2023-04-15T20:48:22.957Z,15.60
2023-04-15T20:49:22.964Z,14.20
2023-04-15T20:50:22.944Z,16.10
2023-04-15T20:51:22.938Z,17.70
2023-04-15T20:52:22.939Z,16.80
2023-04-15T20:53:22.938Z,17.90
2023-04-15T20:54:22.910Z,18.30
2023-04-15T20:55:22.939Z,16.60
2023-04-15T20:56:22.898Z,17.10
2023-04-15T20:57:22.951Z,17.10
2023-04-15T20:58:22.863Z,17.80
2023-04-15T20:59:22.992Z,17.60
2023-04-15T21:00:22.884Z,16.60
2023-04-15T21:01:22.935Z,17.10
2023-04-15T21:02:23.066Z,17.50
2023-04-15T21:03:23.060Z,16.90
2023-04-15T21:04:22.840Z,17.60
2023-04-15T21:05:22.804Z,17.00
2023-04-15T21:06:22.776Z,17.50
2023-04-15T21:07:22.825Z,16.40
2023-04-15T21:08:22.755Z,17.60
2023-04-15T21:09:44.772Z,17.60
2023-04-15T21:10:22.745Z,17.00
2023-04-15T21:11:45.851Z,16.40
2023-04-15T21:12:35.673Z,16.90
2023-04-15T21:13:43.702Z,16.90
2023-04-15T21:17:13.379Z,16.10
2023-04-15T21:18:11.908Z,16.00
2023-04-15T21:19:11.849Z,17.80
2023-04-15T21:20:11.803Z,17.40
2023-04-15T21:21:11.852Z,16.50
2023-04-15T21:22:11.796Z,17.10
2023-04-15T21:23:13.084Z,16.20
2023-04-15T21:24:11.797Z,18.00
2023-04-15T21:25:11.811Z,18.00
2023-04-15T21:26:11.716Z,17.90
2023-04-15T21:27:11.767Z,18.20
2023-04-15T21:28:11.785Z,18.50
2023-04-15T21:29:12.467Z,16.80
2023-04-15T21:30:11.716Z,18.50
2023-04-15T21:31:11.673Z,17.80
2023-04-15T21:32:11.715Z,17.80
2023-04-15T22:06:58.636Z,19.00
2023-04-15T22:07:35.754Z,19.30
2023-04-15T22:08:44.869Z,20.90
2023-04-15T22:09:36.670Z,21.30
2023-04-15T22:10:35.644Z,22.20
2023-04-15T22:11:35.912Z,21.80
2023-04-15T22:12:35.606Z,22.30
2023-04-15T22:13:35.700Z,21.60
2023-04-15T22:14:35.722Z,22.30
2023-04-15T22:15:35.646Z,21.60
2023-04-15T22:16:35.660Z,20.50
2023-04-15T22:17:35.644Z,22.50
2023-04-15T22:18:35.601Z,21.50
2023-04-15T22:19:35.546Z,21.70
2023-04-15T22:20:35.549Z,22.00
2023-04-15T22:21:35.624Z,22.50
2023-04-15T22:22:44.285Z,22.70
2023-04-15T22:23:36.563Z,22.00
2023-04-15T22:24:40.086Z,23.20
2023-04-15T22:25:36.558Z,21.80
2023-04-15T22:26:35.582Z,23.00
2023-04-15T22:27:35.701Z,22.40
2023-04-15T22:28:35.506Z,22.80
2023-04-15T22:29:35.520Z,21.00
2023-04-15T22:30:35.452Z,20.50
2023-04-15T22:31:35.535Z,22.00
2023-04-15T22:32:35.505Z,23.30
2023-04-15T22:33:35.493Z,22.40
2023-04-15T22:34:35.407Z,23.40
2023-04-15T22:35:36.930Z,23.20
2023-04-15T22:36:35.396Z,24.30
2023-04-15T22:37:35.365Z,22.30
2023-04-15T22:38:35.379Z,23.60
2023-04-15T22:39:35.410Z,24.30
2023-04-15T22:40:35.299Z,23.10